createdAt,value
2018-04-23T00:01:40.026Z,24.00
2018-04-23T00:04:08.387Z,24.22
2018-04-23T00:06:36.741Z,24.34
2018-04-23T00:09:05.582Z,24.34
2018-04-23T00:11:33.944Z,24.49
2018-04-23T00:14:02.318Z,24.66
2018-04-23T00:16:30.675Z,24.67
2018-04-23T00:18:59.018Z,24.49
2018-04-23T00:21:27.370Z,24.43
2018-04-23T00:23:55.751Z,24.19
2018-04-23T00:26:24.122Z,24.19
2018-04-23T00:28:52.519Z,24.06
2018-04-23T00:31:20.867Z,24.30
2018-04-23T00:33:49.222Z,23.92
2018-04-23T00:36:18.050Z,24.21
2018-04-23T00:38:46.445Z,24.29
2018-04-23T00:41:14.809Z,24.08
2018-04-23T00:43:43.204Z,24.03
2018-04-23T00:46:11.555Z,23.88
2018-04-23T00:48:39.904Z,23.94
2018-04-23T00:51:08.274Z,24.02
2018-04-23T00:53:39.779Z,24.10
2018-04-23T00:56:08.153Z,24.03
2018-04-23T00:58:36.495Z,23.90
2018-04-23T01:01:04.846Z,24.04
2018-04-23T01:03:33.702Z,24.01
2018-04-23T01:06:02.094Z,23.97
2018-04-23T01:08:30.449Z,24.06
2018-04-23T01:10:58.817Z,23.80
2018-04-23T01:13:27.219Z,23.47
2018-04-23T01:15:55.574Z,23.53
2018-04-23T01:18:23.978Z,23.54
2018-04-23T01:20:52.326Z,23.67
2018-04-23T01:23:20.686Z,23.47
2018-04-23T01:25:49.037Z,23.36
2018-04-23T01:28:17.477Z,23.10
2018-04-23T01:30:45.825Z,23.07
2018-04-23T01:33:14.658Z,23.04
2018-04-23T01:35:43.049Z,23.07
2018-04-23T01:38:11.398Z,22.99
2018-04-23T01:40:39.778Z,22.87
2018-04-23T01:43:08.149Z,22.91
2018-04-23T01:45:36.529Z,22.97
2018-04-23T01:48:04.929Z,23.00
2018-04-23T01:50:33.310Z,22.99
2018-04-23T01:53:02.406Z,23.04
2018-04-23T01:55:30.790Z,22.90
2018-04-23T01:57:59.141Z,22.96
2018-04-23T02:00:27.507Z,22.79
2018-04-23T02:02:55.862Z,22.95
2018-04-23T02:05:24.720Z,22.82
2018-04-23T02:07:53.097Z,22.73
2018-04-23T02:10:21.576Z,22.75
2018-04-23T02:12:49.924Z,22.70
2018-04-23T02:15:18.357Z,22.67
2018-04-23T02:17:46.720Z,22.59
2018-04-23T02:20:15.268Z,22.69
2018-04-23T02:22:43.621Z,22.68
2018-04-23T02:25:12.402Z,22.79
2018-04-23T02:27:41.160Z,22.83
2018-04-23T02:30:09.585Z,22.88
2018-04-23T02:32:37.965Z,22.88
2018-04-23T02:35:06.343Z,22.75
2018-04-23T02:37:34.766Z,22.55
2018-04-23T02:40:03.145Z,22.68
2018-04-23T02:42:31.512Z,22.83
2018-04-23T02:44:59.901Z,23.02
2018-04-23T02:47:28.274Z,22.87
2018-04-23T02:49:56.673Z,22.91
2018-04-23T02:52:25.130Z,22.99
2018-04-23T02:54:53.478Z,22.85
2018-04-23T02:57:21.837Z,22.94
2018-04-23T02:59:50.591Z,22.78
2018-04-23T03:02:18.959Z,22.72
2018-04-23T03:04:47.313Z,22.75
2018-04-23T03:07:16.541Z,22.45
2018-04-23T03:09:44.919Z,22.25
2018-04-23T03:12:13.288Z,22.27
2018-04-23T03:14:41.686Z,22.35
2018-04-23T03:17:10.067Z,22.40
2018-04-23T03:19:38.438Z,22.46
2018-04-23T03:22:07.085Z,22.44
2018-04-23T03:24:35.442Z,22.38
2018-04-23T03:27:04.197Z,22.30
2018-04-23T03:29:32.563Z,22.27
2018-04-23T03:32:00.941Z,22.19
2018-04-23T03:34:30.379Z,22.08
2018-04-23T03:36:59.645Z,21.95
2018-04-23T03:39:28.019Z,21.95
2018-04-23T03:41:56.405Z,21.87
2018-04-23T03:44:24.828Z,21.83
2018-04-23T03:46:53.159Z,21.87
2018-04-23T03:49:21.665Z,21.80
2018-04-23T03:51:50.122Z,21.82
2018-04-23T03:54:18.493Z,21.90
2018-04-23T03:56:47.536Z,21.83
2018-04-23T03:59:16.287Z,21.84
2018-04-23T04:01:44.671Z,21.88
2018-04-23T04:04:13.022Z,21.87
2018-04-23T04:06:41.408Z,21.79
2018-04-23T04:09:09.802Z,21.78
2018-04-23T04:11:38.182Z,21.97
2018-04-23T04:14:24.273Z,21.99
2018-04-23T04:16:56.439Z,21.91
2018-04-23T04:19:24.774Z,21.98
2018-04-23T04:21:53.745Z,22.10
2018-04-23T04:24:22.494Z,22.20
2018-04-23T04:26:50.855Z,22.11
2018-04-23T04:29:19.213Z,22.33
2018-04-23T04:31:47.981Z,22.52
2018-04-23T04:34:16.835Z,22.64
2018-04-23T04:36:45.214Z,22.84
2018-04-23T04:39:13.593Z,23.14
2018-04-23T04:41:41.971Z,23.23
2018-04-23T04:44:10.327Z,23.57
2018-04-23T04:46:38.687Z,24.05
2018-04-23T04:49:07.102Z,24.55
2018-04-23T04:51:35.467Z,25.08
2018-04-23T04:54:03.817Z,25.62
2018-04-23T04:56:32.585Z,26.26
2018-04-23T04:59:01.095Z,26.88
2018-04-23T05:01:29.455Z,27.31
2018-04-23T05:03:58.200Z,27.74
2018-04-23T05:06:26.567Z,28.27
2018-04-23T05:08:54.920Z,28.83
2018-04-23T05:11:23.286Z,29.28
2018-04-23T05:13:52.113Z,29.95
2018-04-23T05:16:20.466Z,30.14
2018-04-23T05:18:48.814Z,30.64
2018-04-23T05:21:17.187Z,31.03
2018-04-23T05:23:45.592Z,31.04
2018-04-23T05:26:14.353Z,31.15
2018-04-23T05:28:42.726Z,31.57
2018-04-23T05:31:11.186Z,31.85
2018-04-23T05:33:39.541Z,32.05
2018-04-23T05:36:07.906Z,31.91
2018-04-23T05:38:36.404Z,31.94
2018-04-23T05:41:04.784Z,31.99
2018-04-23T05:43:33.140Z,32.80
2018-04-23T05:46:01.490Z,32.96
2018-04-23T05:48:29.844Z,33.19
2018-04-23T05:50:58.209Z,32.72
2018-04-23T05:53:26.569Z,32.47
2018-04-23T05:55:54.943Z,31.82
2018-04-23T05:58:23.350Z,30.97
2018-04-23T06:00:51.729Z,30.76
2018-04-23T06:03:20.140Z,30.73
2018-04-23T06:05:48.497Z,31.17
2018-04-23T06:08:16.858Z,32.32
2018-04-23T06:10:45.229Z,32.91
2018-04-23T06:13:13.617Z,33.72
2018-04-23T06:15:41.982Z,33.18
2018-04-23T06:18:10.322Z,31.49
2018-04-23T06:20:39.054Z,31.12
2018-04-23T06:23:07.427Z,30.73
2018-04-23T06:25:35.773Z,29.96
2018-04-23T06:28:04.561Z,29.56
2018-04-23T06:30:33.304Z,28.99
2018-04-23T06:33:01.646Z,28.52
2018-04-23T06:35:30.001Z,27.84
2018-04-23T06:37:58.749Z,27.87
2018-04-23T06:40:27.101Z,27.20
2018-04-23T06:42:55.459Z,26.95
2018-04-23T06:45:23.829Z,26.55
2018-04-23T06:47:52.571Z,26.14
2018-04-23T06:50:20.926Z,26.28
2018-04-23T06:52:49.269Z,26.41
2018-04-23T06:55:18.019Z,26.44
2018-04-23T06:57:46.371Z,26.73
2018-04-23T07:00:14.727Z,26.65
2018-04-23T07:02:43.129Z,26.86
2018-04-23T07:05:11.546Z,26.73
2018-04-23T07:07:39.958Z,26.66
2018-04-23T07:10:08.391Z,26.77
2018-04-23T07:12:36.952Z,26.83
2018-04-23T07:15:05.423Z,27.25
2018-04-23T07:17:33.903Z,27.47
2018-04-23T07:20:02.338Z,27.68
2018-04-23T07:22:30.815Z,27.90
2018-04-23T07:24:59.255Z,27.79
2018-04-23T07:27:27.728Z,28.04
2018-04-23T07:29:56.196Z,28.33
2018-04-23T07:32:24.646Z,28.88
2018-04-23T07:34:53.481Z,30.21
2018-04-23T07:37:21.925Z,31.59
2018-04-23T07:39:50.755Z,34.27
2018-04-23T07:42:19.200Z,36.52
2018-04-23T07:44:48.050Z,38.35
2018-04-23T07:47:16.608Z,39.33
2018-04-23T07:49:45.087Z,39.61
2018-04-23T07:52:13.534Z,40.53
2018-04-23T07:54:42.463Z,40.85
2018-04-23T07:57:10.934Z,41.94
2018-04-23T07:59:39.378Z,42.37
2018-04-23T08:02:08.224Z,43.27
2018-04-23T08:04:36.682Z,42.56
2018-04-23T08:07:05.118Z,42.44
2018-04-23T08:09:33.558Z,42.62
2018-04-23T08:12:02.005Z,43.51
2018-04-23T08:14:30.507Z,43.61
2018-04-23T08:16:58.994Z,44.64
2018-04-23T08:19:27.447Z,44.76
2018-04-23T08:21:55.962Z,44.27
2018-04-23T08:24:24.407Z,42.44
2018-04-23T08:26:52.862Z,41.09
2018-04-23T08:29:21.307Z,40.85
2018-04-23T08:31:49.818Z,39.64
2018-04-23T08:34:18.354Z,38.94
2018-04-23T08:36:46.799Z,38.93
2018-04-23T08:39:15.732Z,38.46
2018-04-23T08:41:44.382Z,38.22
2018-04-23T08:44:13.310Z,37.24
2018-04-23T08:46:41.792Z,36.40
2018-04-23T08:49:10.282Z,35.68
2018-04-23T08:51:38.732Z,34.85
2018-04-23T08:54:07.171Z,34.83
2018-04-23T08:56:35.623Z,34.33
2018-04-23T08:59:04.096Z,34.23
2018-04-23T09:01:32.738Z,33.32
2018-04-23T09:04:01.165Z,32.79
2018-04-23T09:06:29.637Z,32.54
2018-04-23T09:08:58.121Z,32.61
2018-04-23T09:11:26.558Z,32.48
2018-04-23T09:13:54.991Z,31.08
2018-04-23T09:16:23.437Z,30.58
2018-04-23T09:18:52.374Z,29.96
2018-04-23T09:21:20.826Z,29.46
2018-04-23T09:23:49.325Z,29.46
2018-04-23T09:26:17.759Z,29.71
2018-04-23T09:28:46.281Z,30.14
2018-04-23T09:31:14.723Z,30.81
2018-04-23T09:33:43.561Z,31.44
2018-04-23T09:36:12.000Z,31.11
2018-04-23T09:38:40.923Z,30.89
2018-04-23T09:41:09.364Z,30.80
2018-04-23T09:43:38.225Z,29.93
2018-04-23T09:46:06.677Z,29.62
2018-04-23T09:48:35.161Z,29.05
2018-04-23T09:51:03.619Z,29.07
2018-04-23T09:53:32.059Z,28.53
2018-04-23T09:56:00.594Z,27.80
2018-04-23T09:58:29.032Z,27.22
2018-04-23T10:00:58.748Z,26.90
2018-04-23T10:03:41.996Z,26.97
2018-04-23T10:06:10.442Z,27.12
2018-04-23T10:08:39.307Z,27.40
2018-04-23T10:11:07.773Z,27.08
2018-04-23T10:13:36.261Z,27.10
2018-04-23T10:16:04.703Z,26.66
2018-04-23T10:18:33.619Z,26.66
2018-04-23T10:21:02.119Z,26.37
2018-04-23T10:23:30.550Z,26.45
2018-04-23T10:25:59.403Z,26.58
2018-04-23T10:28:27.852Z,26.32
2018-04-23T10:30:56.303Z,26.77
2018-04-23T10:33:25.144Z,26.93
2018-04-23T10:35:53.604Z,27.07
2018-04-23T10:38:22.047Z,27.18
2018-04-23T10:40:51.722Z,27.38
2018-04-23T10:43:20.178Z,27.37
2018-04-23T10:45:48.622Z,27.92
2018-04-23T10:48:17.450Z,28.08
2018-04-23T10:50:45.923Z,28.30
2018-04-23T10:53:14.370Z,28.93
2018-04-23T10:55:43.207Z,29.05
2018-04-23T10:58:11.671Z,28.88
2018-04-23T11:00:40.124Z,29.39
2018-04-23T11:03:08.963Z,29.74
2018-04-23T11:05:37.423Z,29.80
2018-04-23T11:08:05.903Z,29.97
2018-04-23T11:10:34.310Z,30.77
2018-04-23T11:13:02.875Z,31.23
2018-04-23T11:15:31.343Z,31.30
2018-04-23T11:17:59.786Z,31.63
2018-04-23T11:20:28.332Z,31.45
2018-04-23T11:22:56.791Z,31.19
2018-04-23T11:25:25.225Z,30.95
2018-04-23T11:27:53.683Z,30.56
2018-04-23T11:30:22.123Z,29.87
2018-04-23T11:32:51.719Z,29.46
2018-04-23T11:35:20.635Z,29.75
2018-04-23T11:37:49.080Z,29.68
2018-04-23T11:40:18.007Z,29.58
2018-04-23T11:42:46.483Z,29.30
2018-04-23T11:45:14.919Z,28.97
2018-04-23T11:47:43.359Z,28.55
2018-04-23T11:50:11.814Z,28.41
2018-04-23T11:52:40.312Z,28.77
2018-04-23T11:55:09.623Z,28.65
2018-04-23T11:57:38.065Z,28.11
2018-04-23T12:00:06.582Z,28.04
2018-04-23T12:02:35.061Z,28.17
2018-04-23T12:05:03.499Z,28.02
2018-04-23T12:07:32.346Z,28.10
2018-04-23T12:10:00.786Z,28.07
2018-04-23T12:12:29.244Z,28.80
2018-04-23T12:14:58.196Z,28.57
2018-04-23T12:17:26.633Z,28.51
2018-04-23T12:19:55.682Z,28.07
2018-04-23T12:22:24.247Z,28.20
2018-04-23T12:24:52.697Z,28.31
2018-04-23T12:27:21.129Z,27.69
2018-04-23T12:29:49.567Z,27.58
2018-04-23T12:32:18.075Z,27.83
2018-04-23T12:34:46.538Z,28.26
2018-04-23T12:37:15.024Z,28.29
2018-04-23T12:39:43.512Z,28.31
2018-04-23T12:42:11.984Z,28.32
2018-04-23T12:44:40.423Z,28.78
2018-04-23T12:47:09.274Z,28.18
2018-04-23T12:49:37.731Z,28.36
2018-04-23T12:52:06.184Z,28.55
2018-04-23T12:54:35.015Z,28.77
2018-04-23T12:57:03.477Z,28.97
2018-04-23T12:59:31.918Z,29.10
2018-04-23T13:02:00.366Z,29.07
2018-04-23T13:04:28.827Z,29.38
2018-04-23T13:06:57.274Z,28.98
2018-04-23T13:09:26.102Z,29.43
2018-04-23T13:11:54.779Z,29.73
2018-04-23T13:14:23.375Z,30.06
2018-04-23T13:16:51.855Z,30.20
2018-04-23T13:19:20.323Z,29.77
2018-04-23T13:21:48.777Z,29.64
2018-04-23T13:24:17.611Z,29.54
2018-04-23T13:26:46.959Z,29.23
2018-04-23T13:29:15.892Z,28.34
2018-04-23T13:31:44.378Z,28.00
2018-04-23T13:34:12.807Z,28.53
2018-04-23T13:36:41.691Z,28.02
2018-04-23T13:39:10.117Z,28.27
2018-04-23T13:41:38.570Z,28.55
2018-04-23T13:44:07.491Z,28.12
2018-04-23T13:46:35.983Z,28.22
2018-04-23T13:49:04.492Z,28.14
2018-04-23T13:51:32.935Z,28.37
2018-04-23T13:54:01.397Z,28.48
2018-04-23T13:56:29.907Z,28.64
2018-04-23T13:58:58.392Z,28.30
2018-04-23T14:01:26.830Z,28.12
2018-04-23T14:03:55.677Z,27.97
2018-04-23T14:06:24.123Z,27.61
2018-04-23T14:08:52.560Z,28.07
2018-04-23T14:11:21.001Z,28.02
2018-04-23T14:13:49.479Z,27.93
2018-04-23T14:16:17.919Z,28.18
2018-04-23T14:18:46.856Z,27.63
2018-04-23T14:21:15.310Z,28.27
2018-04-23T14:23:43.746Z,28.21
2018-04-23T14:26:12.196Z,28.01
2018-04-23T14:28:40.683Z,27.99
2018-04-23T14:31:09.131Z,28.14
2018-04-23T14:33:37.623Z,28.22
2018-04-23T14:36:06.122Z,28.03
2018-04-23T14:38:34.600Z,27.94
2018-04-23T14:41:03.042Z,27.95
2018-04-23T14:43:31.978Z,27.82
2018-04-23T14:46:00.425Z,27.91
2018-04-23T14:48:29.343Z,27.79
2018-04-23T14:50:57.837Z,27.97
2018-04-23T14:53:26.268Z,27.94
2018-04-23T14:55:55.187Z,28.00
2018-04-23T14:58:23.631Z,27.95
2018-04-23T15:00:52.558Z,27.75
2018-04-23T15:03:20.990Z,27.39
2018-04-23T15:05:50.332Z,27.52
2018-04-23T15:08:18.820Z,27.58
2018-04-23T15:10:47.719Z,27.50
2018-04-23T15:13:16.202Z,27.52
2018-04-23T15:15:44.688Z,27.26
2018-04-23T15:18:13.174Z,26.93
2018-04-23T15:20:41.610Z,26.90
2018-04-23T15:23:10.539Z,27.12
2018-04-23T15:25:38.982Z,26.91
2018-04-23T15:28:07.908Z,27.04
2018-04-23T15:30:36.391Z,27.75
2018-04-23T15:33:06.512Z,27.72
2018-04-23T15:35:34.991Z,27.19
2018-04-23T15:38:03.472Z,27.28
2018-04-23T15:40:31.907Z,26.95
2018-04-23T15:43:00.743Z,26.58
2018-04-23T15:45:29.181Z,26.68
2018-04-23T15:47:58.110Z,26.68
2018-04-23T15:50:26.575Z,26.65
2018-04-23T15:52:55.018Z,26.54
2018-04-23T15:55:23.474Z,26.71
2018-04-23T15:57:51.931Z,26.66
2018-04-23T16:00:20.367Z,26.75
2018-04-23T16:02:48.894Z,26.82
2018-04-23T16:05:17.345Z,26.91
2018-04-23T16:07:46.196Z,26.73
2018-04-23T16:10:15.153Z,27.02
2018-04-23T16:12:43.591Z,27.05
2018-04-23T16:15:12.127Z,26.68
2018-04-23T16:17:40.570Z,26.58
2018-04-23T16:20:09.495Z,26.47
2018-04-23T16:22:37.979Z,26.81
2018-04-23T16:25:06.457Z,26.53
2018-04-23T16:27:34.891Z,26.33
2018-04-23T16:30:03.441Z,26.12
2018-04-23T16:32:32.207Z,25.96
2018-04-23T16:35:00.649Z,25.55
2018-04-23T16:37:29.585Z,25.87
2018-04-23T16:39:58.022Z,26.12
2018-04-23T16:42:26.864Z,25.99
2018-04-23T16:44:55.353Z,26.04
2018-04-23T16:47:23.779Z,26.02
2018-04-23T16:49:52.826Z,26.10
2018-04-23T16:52:21.296Z,25.58
2018-04-23T16:54:49.735Z,25.66
2018-04-23T16:57:18.594Z,25.76
2018-04-23T16:59:47.048Z,25.63
2018-04-23T17:02:15.528Z,25.53
2018-04-23T17:04:43.963Z,25.48
2018-04-23T17:07:12.803Z,25.38
2018-04-23T17:09:41.247Z,25.31
2018-04-23T17:12:09.755Z,25.08
2018-04-23T17:14:38.205Z,25.22
2018-04-23T17:17:07.133Z,25.34
2018-04-23T17:19:35.615Z,25.40
2018-04-23T17:22:04.059Z,25.18
2018-04-23T17:24:32.888Z,25.15
2018-04-23T17:27:01.324Z,25.15
2018-04-23T17:29:30.285Z,24.87
2018-04-23T17:31:58.748Z,24.54
2018-04-23T17:34:27.199Z,24.32
2018-04-23T17:36:55.646Z,24.31
2018-04-23T17:39:24.583Z,24.35
2018-04-23T17:41:53.022Z,24.17
2018-04-23T17:44:21.855Z,24.23
2018-04-23T17:46:50.299Z,24.25
2018-04-23T17:49:19.130Z,24.17
2018-04-23T17:51:47.659Z,24.06
2018-04-23T17:54:16.598Z,23.94
2018-04-23T17:56:45.047Z,23.65
2018-04-23T17:59:13.977Z,23.69
2018-04-23T18:01:42.446Z,23.96
2018-04-23T18:04:10.904Z,23.65
2018-04-23T18:06:39.847Z,23.57
2018-04-23T18:09:08.318Z,23.71
2018-04-23T18:11:36.768Z,23.63
2018-04-23T18:14:05.283Z,23.59
2018-04-23T18:16:33.752Z,23.64
2018-04-23T18:19:02.208Z,23.61
2018-04-23T18:21:30.686Z,23.61
2018-04-23T18:23:59.206Z,23.25
2018-04-23T18:26:27.646Z,23.26
2018-04-23T18:28:56.568Z,23.20
2018-04-23T18:31:25.036Z,23.28
2018-04-23T18:33:53.509Z,22.84
2018-04-23T18:36:22.015Z,22.81
2018-04-23T18:38:50.530Z,23.06
2018-04-23T18:41:19.075Z,23.24
2018-04-23T18:43:47.557Z,23.15
2018-04-23T18:46:16.036Z,23.27
2018-04-23T18:48:44.478Z,23.13
2018-04-23T18:51:13.337Z,23.12
2018-04-23T18:53:41.798Z,23.36
2018-04-23T18:56:10.253Z,22.94
2018-04-23T18:58:38.747Z,22.99
2018-04-23T19:01:07.203Z,22.91
2018-04-23T19:03:36.095Z,22.98
2018-04-23T19:06:04.629Z,22.85
2018-04-23T19:08:33.084Z,23.07
2018-04-23T19:11:01.551Z,23.01
2018-04-23T19:13:30.017Z,23.02
2018-04-23T19:16:24.918Z,22.67
2018-04-23T19:18:53.780Z,22.79
2018-04-23T19:21:22.383Z,22.68
2018-04-23T19:23:51.229Z,22.65
2018-04-23T19:26:19.709Z,22.76
2018-04-23T19:28:48.198Z,22.74
2018-04-23T19:31:16.671Z,22.59
2018-04-23T19:33:45.305Z,22.79
2018-04-23T19:36:13.794Z,22.56
2018-04-23T19:38:42.281Z,22.59
2018-04-23T19:41:10.895Z,22.64
2018-04-23T19:43:39.340Z,22.79
2018-04-23T19:46:08.222Z,22.80
2018-04-23T19:48:36.745Z,22.90
2018-04-23T19:51:05.203Z,22.85
2018-04-23T19:53:33.666Z,22.77
2018-04-23T19:56:02.588Z,22.52
2018-04-23T19:58:31.081Z,22.47
2018-04-23T20:00:59.534Z,22.23
2018-04-23T20:03:27.991Z,22.36
2018-04-23T20:05:56.841Z,22.52
2018-04-23T20:08:25.308Z,22.41
2018-04-23T20:10:53.783Z,22.32
2018-04-23T20:13:22.266Z,22.41
2018-04-23T20:15:50.755Z,22.37
2018-04-23T20:18:19.236Z,22.27
2018-04-23T20:20:47.707Z,22.12
2018-04-23T20:23:16.270Z,22.06
2018-04-23T20:25:44.660Z,21.62
2018-04-23T20:28:13.099Z,21.72
2018-04-23T20:30:41.632Z,21.72
2018-04-23T20:33:10.109Z,21.76
2018-04-23T20:35:38.596Z,21.96
2018-04-23T20:38:07.092Z,21.91
2018-04-23T20:40:35.658Z,22.08
2018-04-23T20:43:04.092Z,21.93
2018-04-23T20:45:32.555Z,21.86
2018-04-23T20:48:00.999Z,21.89
2018-04-23T20:50:29.464Z,21.89
2018-04-23T20:52:57.967Z,21.86
2018-04-23T20:55:26.412Z,21.87
2018-04-23T20:57:55.367Z,21.65
2018-04-23T21:00:23.945Z,21.58
2018-04-23T21:02:52.407Z,21.56
2018-04-23T21:05:20.871Z,21.49
2018-04-23T21:07:49.369Z,21.50
2018-04-23T21:10:17.834Z,21.68
2018-04-23T21:12:46.274Z,21.65
2018-04-23T21:15:14.705Z,21.45
2018-04-23T21:17:43.186Z,21.37
2018-04-23T21:20:11.679Z,21.58
2018-04-23T21:22:40.127Z,21.75
2018-04-23T21:25:08.596Z,21.77
2018-04-23T21:27:37.532Z,21.69
2018-04-23T21:30:06.008Z,21.80
2018-04-23T21:32:34.531Z,21.79
2018-04-23T21:35:02.976Z,21.51
2018-04-23T21:37:31.581Z,21.60
2018-04-23T21:40:00.455Z,21.52
2018-04-23T21:42:28.903Z,21.31
2018-04-23T21:44:57.404Z,21.41
2018-04-23T21:47:25.883Z,21.34
2018-04-23T21:49:54.455Z,21.48
2018-04-23T21:52:22.932Z,21.33
2018-04-23T21:54:51.431Z,21.19
2018-04-23T21:57:19.888Z,21.13
2018-04-23T21:59:48.332Z,21.20
2018-04-23T22:02:16.882Z,21.14
2018-04-23T22:04:45.361Z,21.07
2018-04-23T22:07:13.854Z,20.90
2018-04-23T22:09:42.332Z,20.83
2018-04-23T22:12:10.814Z,20.72
2018-04-23T22:14:39.285Z,20.71
2018-04-23T22:17:07.731Z,20.68
2018-04-23T22:19:36.585Z,20.54
2018-04-23T22:22:05.180Z,20.52
2018-04-23T22:24:33.627Z,20.53
2018-04-23T22:27:02.125Z,20.48
2018-04-23T22:29:30.560Z,20.52
2018-04-23T22:31:59.041Z,20.57
2018-04-23T22:34:27.485Z,20.36
2018-04-23T22:36:55.938Z,20.27
2018-04-23T22:39:24.456Z,20.38
2018-04-23T22:41:52.902Z,20.38
2018-04-23T22:44:21.350Z,20.22
2018-04-23T22:46:49.821Z,20.08
2018-04-23T22:49:18.277Z,19.88
2018-04-23T22:51:46.733Z,20.05
2018-04-23T22:54:15.176Z,20.03
2018-04-23T22:56:43.636Z,20.25
2018-04-23T22:59:12.464Z,20.27
2018-04-23T23:01:40.922Z,20.47
2018-04-23T23:04:09.369Z,20.52
2018-04-23T23:06:37.824Z,20.31
2018-04-23T23:09:07.096Z,20.33
2018-04-23T23:20:27.244Z,19.81
2018-04-23T23:25:52.611Z,20.24
2018-04-23T23:28:20.994Z,20.45
2018-04-23T23:30:49.457Z,20.23
2018-04-23T23:33:17.821Z,19.96
2018-04-23T23:35:46.227Z,20.11
2018-04-23T23:38:14.603Z,20.03
2018-04-23T23:40:42.975Z,20.23
2018-04-23T23:43:11.329Z,20.01
2018-04-23T23:45:39.694Z,19.88
2018-04-23T23:48:08.040Z,19.90
2018-04-23T23:50:36.397Z,19.74
2018-04-23T23:53:04.757Z,19.85
2018-04-23T23:55:33.118Z,19.73
2018-04-23T23:58:01.522Z,19.72
